Terminal Aerodrome Forecast
Issued by NWS

Home | Current Version | Previous Version | Text Only | Print | Product List | Glossary On
Versions: 1 2 3 4 5 6 7 8 9 10 11 12 13 14 15 16 17 18 19 20 21 22 23 24
000
FTUS45 KBOU 272324
TAFAPA
TAF
KAPA 272324Z 2800/2824 12006KT P6SM SCT100 BKN200
     FM280100 31007KT P6SM SCT100 BKN200
     FM280300 01012KT P6SM FEW200
     FM280700 VRB05KT P6SM FEW200
     FM281100 21007KT P6SM FEW200
     FM281600 11008KT P6SM FEW200
     FM282100 15011KT P6SM VCTS SCT070CB BKN120=

USA.gov is the U.S. government's official web portal to all federal, state and local government web resources and services.